Home > Products > Valid Products > MTR

000
SAUS46 KMFR 242130
MTRSXT
SPECI KSXT 242129Z AUTO VRB05KT 10SM SCT007 13/09 A3007 RMK AO2
T01330094





000
SAUS46 KMFR 242057
MTRSXT
METAR KSXT 242056Z AUTO VRB03KT 10SM OVC006 12/09 A3008 RMK AO2 CIG
005V010 SLP174 T01220089 58005





000
SAUS46 KMFR 241957
MTRSXT
METAR KSXT 241956Z AUTO VRB04KT 10SM OVC006 11/08 A3009 RMK AO2
SLP179 T01060083





000
SAUS46 KMFR 241957
MTRSXT
METAR KSXT 241956Z AUTO VRB04KT 10SM OVC006 11/08 A3009 RMK AO2
SLP179 T01060083





000
SAUS46 KMFR 241942
MTRSXT
SPECI KSXT 241941Z AUTO VRB06KT 10SM OVC005 11/08 A3009 RMK AO2 CIG
003V009 T01110083





000
SAUS46 KMFR 241942
MTRSXT
SPECI KSXT 241941Z AUTO VRB06KT 10SM OVC005 11/08 A3009 RMK AO2 CIG
003V009 T01110083





000
SAUS46 KMFR 241857
MTRSXT
METAR KSXT 241856Z AUTO 02006KT 10SM OVC003 09/08 A3010 RMK AO2
SLP184 T00890078





000
SAUS46 KMFR 241816
MTRSXT
SPECI KSXT 241815Z AUTO VRB03KT 9SM OVC002 08/08 A3010 RMK AO2
T00830083





000
SAUS46 KMFR 241805
MTRSXT
SPECI KSXT 241803Z AUTO VRB03KT 2SM BR OVC002 08/08 A3010 RMK AO2
VIS 3/4V5 T00830078





000
SAUS46 KMFR 241757
MTRSXT
METAR KSXT 241756Z AUTO VRB03KT 1 3/4SM BR OVC002 08/08 A3010 RMK
AO2 SLP186 60000 T00830078 10083 20061 58002





000
SAUS46 KMFR 241757
MTRSXT
METAR KSXT 241756Z AUTO VRB03KT 1 3/4SM BR OVC002 08/08 A3010 RMK
AO2 SLP186 60000 T00830078 10083 20061 58002





000
SAUS46 KMFR 241755
MTRSXT
SPECI KSXT 241753Z AUTO 00000KT 1 1/2SM BR OVC002 08/08 A3010 RMK
AO2 VIS 1V5





000
SAUS46 KMFR 241755
MTRSXT
SPECI KSXT 241753Z AUTO 00000KT 1 1/2SM BR OVC002 08/08 A3010 RMK
AO2 VIS 1V5





000
SAUS46 KMFR 241747
MTRSXT
SPECI KSXT 241746Z AUTO VRB04KT 1/2SM FG VV002 08/08 A3010 RMK AO2
T00830078





000
SAUS46 KMFR 241657
MTRSXT
METAR KSXT 241656Z AUTO 00000KT 1/4SM FG VV002 08/08 A3010 RMK AO2
SLP186 T00830078





000
SAUS46 KMFR 241657
MTRSXT
METAR KSXT 241656Z AUTO 00000KT 1/4SM FG VV002 08/08 A3010 RMK AO2
SLP186 T00830078





000
SAUS46 KMFR 241557
MTRSXT
METAR KSXT 241556Z AUTO 01004KT 1/4SM FG VV002 08/08 A3011 RMK AO2
RAB41E50 SLP187 P0000 T00780078





000
SAUS46 KMFR 241557
MTRSXT
METAR KSXT 241556Z AUTO 01004KT 1/4SM FG VV002 08/08 A3011 RMK AO2
RAB41E50 SLP187 P0000 T00780078





000
SAUS46 KMFR 241543
MTRSXT
SPECI KSXT 241542Z AUTO 00000KT 1/4SM -RA FG VV002 08/08 A3011 RMK
AO2 RAB41 P0000 T00780078





000
SAUS46 KMFR 241537
MTRSXT
SPECI KSXT 241536Z AUTO VRB03KT 1SM BR BKN002 OVC006 08/08 A3011 RMK
AO2 VIS 1/2V5 T00780078





000
SAUS46 KMFR 241457
MTRSXT
METAR KSXT 241456Z AUTO VRB04KT M1/4SM FG VV002 07/07 A3011 RMK AO2
SLP187 60000 T00720072 56001





000
SAUS46 KMFR 241457
MTRSXT
METAR KSXT 241456Z AUTO VRB04KT M1/4SM FG VV002 07/07 A3011 RMK AO2
SLP187 60000 T00720072 56001





000
SAUS46 KMFR 241357
MTRSXT
METAR KSXT 241356Z AUTO 36005KT M1/4SM FG VV001 07/07 A3011 RMK AO2
SLP184 T00670067





000
SAUS46 KMFR 241312
MTRSXT
SPECI KSXT 241311Z AUTO 02006KT M1/4SM FG VV001 07/07 A3011 RMK AO2
T00670067





000
SAUS46 KMFR 241302
MTRSXT
SPECI KSXT 241301Z AUTO 02007KT 3/4SM BR VV001 07/06 A3011 RMK AO2
T00670061





000
SAUS46 KMFR 241302
MTRSXT
SPECI KSXT 241301Z AUTO 02007KT 3/4SM BR VV001 07/06 A3011 RMK AO2
T00670061





000
SAUS46 KMFR 241300
MTRSXT
SPECI KSXT 241259Z AUTO 02007KT 1 3/4SM BR FEW001 07/06 A3011 RMK
AO2 VIS 1/2V5 T00670061





000
SAUS46 KMFR 241300
MTRSXT
SPECI KSXT 241259Z AUTO 02007KT 1 3/4SM BR FEW001 07/06 A3011 RMK
AO2 VIS 1/2V5 T00670061





000
SAUS46 KMFR 241257
MTRSXT
METAR KSXT 241256Z AUTO 02008KT 4SM BR FEW001 07/06 A3010 RMK AO2
RAE11 SLP182 P0000 T00670061





000
SAUS46 KMFR 241250
MTRSXT
SPECI KSXT 241249Z AUTO 02007KT 5SM BR SCT001 07/06 A3011 RMK AO2
RAE11 P0000 T00670061





000
SAUS46 KMFR 241250
MTRSXT
SPECI KSXT 241249Z AUTO 02007KT 5SM BR SCT001 07/06 A3011 RMK AO2
RAE11 P0000 T00670061





000
SAUS46 KMFR 241241
MTRSXT
SPECI KSXT 241240Z AUTO 02006KT 4SM BR BKN001 07/06 A3011 RMK AO2
RAE11 P0000 T00670061





000
SAUS46 KMFR 241241
MTRSXT
SPECI KSXT 241240Z AUTO 02006KT 4SM BR BKN001 07/06 A3011 RMK AO2
RAE11 P0000 T00670061





000
SAUS46 KMFR 241239
MTRSXT
SPECI KSXT 241238Z AUTO 02006KT 1 1/4SM BR BKN001 07/06 A3010 RMK
AO2 RAE11 P0000 T00670061





000
SAUS46 KMFR 241239
MTRSXT
SPECI KSXT 241238Z AUTO 02006KT 1 1/4SM BR BKN001 07/06 A3010 RMK
AO2 RAE11 P0000 T00670061





000
SAUS46 KMFR 241158
MTRSXT
METAR KSXT 241156Z AUTO 36007KT 1/4SM -RA FG VV001 07/06 A3011 RMK
AO2 RAB54 SLP181 P0000 60000 T00670061 10072 20061 56008





000
SAUS46 KMFR 241158
MTRSXT
METAR KSXT 241156Z AUTO 36007KT 1/4SM -RA FG VV001 07/06 A3011 RMK
AO2 RAB54 SLP181 P0000 60000 T00670061 10072 20061 56008





000
SAUS46 KMFR 241155
MTRSXT
SPECI KSXT 241153Z AUTO 36006KT 1/4SM FG VV001 07/06 A3011 RMK AO2





000
SAUS46 KMFR 241155
MTRSXT
SPECI KSXT 241153Z AUTO 36006KT 1/4SM FG VV001 07/06 A3011 RMK AO2





000
SAUS46 KMFR 241150
MTRSXT
SPECI KSXT 241149Z AUTO 01006KT 1 1/4SM BR FEW001 06/06 A3011 RMK
AO2 T00610061





000
SAUS46 KMFR 241150
MTRSXT
SPECI KSXT 241149Z AUTO 01006KT 1 1/4SM BR FEW001 06/06 A3011 RMK
AO2 T00610061





000
SAUS46 KMFR 241057
MTRSXT
METAR KSXT 241056Z AUTO 03006KT 10SM FEW001 07/07 A3011 RMK AO2
SLP182 T00670067





000
SAUS46 KMFR 241050
MTRSXT
SPECI KSXT 241049Z AUTO 04007KT 10SM SCT001 07/07 A3011 RMK AO2
T00670067





000
SAUS46 KMFR 241050
MTRSXT
SPECI KSXT 241049Z AUTO 04007KT 10SM SCT001 07/07 A3011 RMK AO2
T00670067





000
SAUS46 KMFR 241040
MTRSXT
SPECI KSXT 241039Z AUTO 02007KT 4SM BR BKN001 07/07 A3012 RMK AO2
T00670067





000
SAUS46 KMFR 241040
MTRSXT
SPECI KSXT 241039Z AUTO 02007KT 4SM BR BKN001 07/07 A3012 RMK AO2
T00670067





000
SAUS46 KMFR 241037
MTRSXT
SPECI KSXT 241036Z AUTO 03007KT 1 1/2SM BR BKN001 07/07 A3012 RMK
AO2 VIS 1/2V5 T00670067





000
SAUS46 KMFR 241034
MTRSXT
SPECI KSXT 241033Z AUTO 02008KT 3/4SM BR VV001 07/07 A3012 RMK AO2
T00670067





000
SAUS46 KMFR 241024
MTRSXT
SPECI KSXT 241023Z AUTO 02007KT 1/4SM FG VV001 07/07 A3012 RMK AO2
T00670067





000
SAUS46 KMFR 241024
MTRSXT
SPECI KSXT 241023Z AUTO 02007KT 1/4SM FG VV001 07/07 A3012 RMK AO2
T00670067





000
SAUS46 KMFR 241017
MTRSXT
SPECI KSXT 241016Z AUTO 01008KT 1SM BR VV001 07/07 A3012 RMK AO2 VIS
1/4V3 T00670067





000
SAUS46 KMFR 241000
MTRSXT
SPECI KSXT 240959Z AUTO 02009KT 2 1/2SM BR BKN001 07/07 A3012 RMK
AO2 VIS 3/4V5 T00670067





000
SAUS46 KMFR 240957
MTRSXT
METAR KSXT 240956Z AUTO 02010KT 4SM BR SCT001 07/07 A3012 RMK AO2
SLP186 T00670067





000
SAUS46 KMFR 240934
MTRSXT
SPECI KSXT 240933Z AUTO 02008KT 6SM BR SCT001 07/07 A3013 RMK AO2
T00670067





000
SAUS46 KMFR 240934
MTRSXT
SPECI KSXT 240933Z AUTO 02008KT 6SM BR SCT001 07/07 A3013 RMK AO2
T00670067





000
SAUS46 KMFR 240910
MTRSXT
SPECI KSXT 240909Z AUTO 01008KT 3SM BR BKN001 07/07 A3014 RMK AO2
T00670067





000
SAUS46 KMFR 240910
MTRSXT
SPECI KSXT 240909Z AUTO 01008KT 3SM BR BKN001 07/07 A3014 RMK AO2
T00670067





000
SAUS46 KMFR 240905
MTRSXT
SPECI KSXT 240904Z AUTO 01009KT 1 1/2SM BR BKN001 07/07 A3014 RMK
AO2 VIS 3/4V5 T00670067





000
SAUS46 KMFR 240857
MTRSXT
METAR KSXT 240856Z AUTO 01009KT 3/4SM BR VV001 07/07 A3014 RMK AO2
SLP191 T00670067 57006





000
SAUS46 KMFR 240842
MTRSXT
SPECI KSXT 240841Z AUTO 36008KT 1/4SM FG VV001 07/07 A3014 RMK AO2
T00670067





000
SAUS46 KMFR 240842
MTRSXT
SPECI KSXT 240841Z AUTO 36008KT 1/4SM FG VV001 07/07 A3014 RMK AO2
T00670067





000
SAUS46 KMFR 240834
MTRSXT
SPECI KSXT 240833Z AUTO 35006KT 3/4SM BR VV001 07/07 A3014 RMK AO2
T00670067





000
SAUS46 KMFR 240834
MTRSXT
SPECI KSXT 240833Z AUTO 35006KT 3/4SM BR VV001 07/07 A3014 RMK AO2
T00670067





000
SAUS46 KMFR 240831
MTRSXT
SPECI KSXT 240829Z AUTO 36007KT 1 1/2SM BR BKN001 07/07 A3014 RMK
AO2 T00670067





000
SAUS46 KMFR 240757
MTRSXT
METAR KSXT 240756Z AUTO 35007KT 1/4SM FG VV001 07/07 A3014 RMK AO2
SLP196 T00670067 401390039





000
SAUS46 KMFR 240740
MTRSXT
SPECI KSXT 240739Z AUTO 34008KT 1/4SM FG VV001 07/07 A3015 RMK AO2
T00670067





000
SAUS46 KMFR 240740
MTRSXT
SPECI KSXT 240739Z AUTO 34008KT 1/4SM FG VV001 07/07 A3015 RMK AO2
T00670067





000
SAUS46 KMFR 240706
MTRSXT
SPECI KSXT 240705Z AUTO 35007KT 1/4SM FG VV002 07/07 A3016 RMK AO2
T00670067





000
SAUS46 KMFR 240657
MTRSXT
METAR KSXT 240656Z AUTO 35008KT 1/2SM FG VV002 07/07 A3016 RMK AO2
SLP204 T00720067





000
SAUS46 KMFR 240642
MTRSXT
SPECI KSXT 240641Z AUTO 36007KT 3/4SM BR VV002 07/07 A3016 RMK AO2
T00720067





000
SAUS46 KMFR 240642
MTRSXT
SPECI KSXT 240641Z AUTO 36007KT 3/4SM BR VV002 07/07 A3016 RMK AO2
T00720067





000
SAUS46 KMFR 240633
MTRSXT
SPECI KSXT 240632Z AUTO 35006KT 1 3/4SM BR OVC002 07/07 A3016 RMK
AO2 T00720067





000
SAUS46 KMFR 240633
MTRSXT
SPECI KSXT 240632Z AUTO 35006KT 1 3/4SM BR OVC002 07/07 A3016 RMK
AO2 T00720067





000
SAUS46 KMFR 240621
MTRSXT
SPECI KSXT 240620Z AUTO 35007KT 2 1/2SM BR BKN003 OVC007 07/07 A3016
RMK AO2 VIS 1 1/4V5 T00720067





000
SAUS46 KMFR 240557
MTRSXT
METAR KSXT 240556Z AUTO 35008KT 10SM OVC006 07/07 A3016 RMK AO2 CIG
002V010 SLP209 T00720067 10122 20072 51006





000
SAUS46 KMFR 240557
MTRSXT
METAR KSXT 240556Z AUTO 35008KT 10SM OVC006 07/07 A3016 RMK AO2 CIG
002V010 SLP209 T00720067 10122 20072 51006





000
SAUS46 KMFR 240457
MTRSXT
METAR KSXT 240456Z AUTO 36009KT 10SM BKN008 08/07 A3015 RMK AO2
SLP209 T00780067





000
SAUS46 KMFR 240438
MTRSXT
SPECI KSXT 240437Z AUTO 35010G17KT 10SM SCT008 BKN012 08/07 A3015
RMK AO2 T00780067





000
SAUS46 KMFR 240438
MTRSXT
SPECI KSXT 240437Z AUTO 35010G17KT 10SM SCT008 BKN012 08/07 A3015
RMK AO2 T00780067





000
SAUS46 KMFR 240416
MTRSXT
SPECI KSXT 240415Z AUTO 01009G15KT 10SM BKN009 OVC012 08/07 A3015
RMK AO2 CIG 006V012 T00780067





000
SAUS46 KMFR 240416
MTRSXT
SPECI KSXT 240415Z AUTO 01009G15KT 10SM BKN009 OVC012 08/07 A3015
RMK AO2 CIG 006V012 T00780067





000
SAUS46 KMFR 240358
MTRSXT
METAR KSXT 240356Z AUTO 01008KT 10SM BKN010 08/07 A3015 RMK AO2 CIG
008V013 SLP206 T00830067





000
SAUS46 KMFR 240326
MTRSXT
SPECI KSXT 240325Z AUTO 36008G14KT 10SM BKN011 08/07 A3014 RMK AO2
T00830067





000
SAUS46 KMFR 240309
MTRSXT
SPECI KSXT 240307Z AUTO VRB06KT 10SM FEW013 09/07 A3014 RMK AO2
T00890072





000
SAUS46 KMFR 240257
MTRSXT
METAR KSXT 240256Z AUTO VRB04KT 10SM BKN014 09/07 A3014 RMK AO2
SLP203 T00940067 55003





000
SAUS46 KMFR 240257
MTRSXT
METAR KSXT 240256Z AUTO VRB04KT 10SM BKN014 09/07 A3014 RMK AO2
SLP203 T00940067 55003





000
SAUS46 KMFR 240242
MTRSXT
SPECI KSXT 240241Z AUTO VRB03KT 10SM BKN015 09/07 A3014 RMK AO2
T00940072





000
SAUS46 KMFR 240157
MTRSXT
METAR KSXT 240156Z AUTO VRB05KT 10SM CLR 11/07 A3014 RMK AO2 SLP199
T01110072





000
SAUS46 KMFR 240157
MTRSXT
METAR KSXT 240156Z AUTO VRB05KT 10SM CLR 11/07 A3014 RMK AO2 SLP199
T01110072





000
SAUS46 KMFR 240057
MTRSXT
METAR KSXT 240056Z AUTO VRB05KT 10SM CLR 12/07 A3014 RMK AO2 SLP198
T01220067





000
SAUS46 KMFR 240057
MTRSXT
METAR KSXT 240056Z AUTO VRB05KT 10SM CLR 12/07 A3014 RMK AO2 SLP198
T01220067





000
SAUS46 KMFR 232357
MTRSXT
METAR KSXT 232356Z AUTO VRB04KT 10SM CLR 13/08 A3015 RMK AO2 SLP199
T01330078 10139 20067 56008





000
SAUS46 KMFR 232357
MTRSXT
METAR KSXT 232356Z AUTO VRB04KT 10SM CLR 13/08 A3015 RMK AO2 SLP199
T01330078 10139 20067 56008





000
SAUS46 KMFR 232257
MTRSXT
METAR KSXT 232256Z AUTO VRB03KT 10SM BKN030 13/08 A3015 RMK AO2
SLP201 T01330078





000
SAUS46 KMFR 232257
MTRSXT
METAR KSXT 232256Z AUTO VRB03KT 10SM BKN030 13/08 A3015 RMK AO2
SLP201 T01330078





000
SAUS46 KMFR 232157
MTRSXT
METAR KSXT 232156Z AUTO VRB05KT 10SM FEW012 BKN039 13/08 A3017 RMK
AO2 SLP205 T01280078





000
SAUS46 KMFR 232157
MTRSXT
METAR KSXT 232156Z AUTO VRB05KT 10SM FEW012 BKN039 13/08 A3017 RMK
AO2 SLP205 T01280078





000
SAUS46 KMFR 232057
MTRSXT
METAR KSXT 232056Z AUTO VRB05KT 10SM FEW008 BKN041 13/08 A3018 RMK
AO2 SLP207 T01330083 51004





000
SAUS46 KMFR 232054
MTRSXT
SPECI KSXT 232053Z AUTO VRB05KT 10SM SCT008 BKN041 13/08 A3018 RMK
AO2





000
SAUS46 KMFR 232054
MTRSXT
SPECI KSXT 232053Z AUTO VRB05KT 10SM SCT008 BKN041 13/08 A3018 RMK
AO2





000
SAUS46 KMFR 231957
MTRSXT
METAR KSXT 231956Z AUTO 36005KT 10SM BKN006 OVC041 11/07 A3018 RMK
AO2 SLP214 T01060072





000
SAUS46 KMFR 231943
MTRSXT
SPECI KSXT 231942Z AUTO VRB03KT 10SM BKN006 BKN041 11/08 A3018 RMK
AO2 T01060078





000
SAUS46 KMFR 231943
MTRSXT
SPECI KSXT 231942Z AUTO VRB03KT 10SM BKN006 BKN041 11/08 A3018 RMK
AO2 T01060078





000
SAUS46 KMFR 231934
MTRSXT
SPECI KSXT 231933Z AUTO VRB04KT 10SM SCT004 BKN041 11/08 A3018 RMK
AO2 T01110078





000
SAUS46 KMFR 231934
MTRSXT
SPECI KSXT 231933Z AUTO VRB04KT 10SM SCT004 BKN041 11/08 A3018 RMK
AO2 T01110078





000
SAUS46 KMFR 231857
MTRSXT
METAR KSXT 231856Z AUTO 10SM OVC003 09/07 A3016 RMK AO2 CIG 002V006
SLP209 T00940072





000
SAUS46 KMFR 231857
MTRSXT
METAR KSXT 231856Z AUTO 10SM OVC003 09/07 A3016 RMK AO2 CIG 002V006
SLP209 T00940072





000
SAUS46 KMFR 231818
MTRSXT
SPECI KSXT 231816Z AUTO VRB04KT 10SM OVC004 08/06 A3016 RMK AO2 CIG
002V007 T00780061





000
SAUS46 KMFR 231758
MTRSXT
METAR KSXT 231756Z AUTO VRB03KT 10SM OVC007 07/06 A3016 RMK AO2
RAB37E48 SLP214 P0000 60000 T00670061 10078 20039 51008





000
SAUS46 KMFR 231758
MTRSXT
METAR KSXT 231756Z AUTO VRB03KT 10SM OVC007 07/06 A3016 RMK AO2
RAB37E48 SLP214 P0000 60000 T00670061 10078 20039 51008





000
SAUS46 KMFR 231750
MTRSXT
SPECI KSXT 231749Z AUTO VRB03KT 10SM SCT002 OVC007 07/06 A3016 RMK
AO2 RAB37E48 P0000 T00720061





000
SAUS46 KMFR 231750
MTRSXT
SPECI KSXT 231749Z AUTO VRB03KT 10SM SCT002 OVC007 07/06 A3016 RMK
AO2 RAB37E48 P0000 T00720061





000
SAUS46 KMFR 231738
MTRSXT
SPECI KSXT 231737Z AUTO 00000KT 7SM -RA BKN002 OVC006 07/07 A3016
RMK AO2 RAB37 P0000 T00720072





000
SAUS46 KMFR 231738
MTRSXT
SPECI KSXT 231737Z AUTO 00000KT 7SM -RA BKN002 OVC006 07/07 A3016
RMK AO2 RAB37 P0000 T00720072





000
SAUS46 KMFR 231729
MTRSXT
SPECI KSXT 231728Z AUTO 00000KT 2SM BR OVC002 06/06 A3016 RMK AO2
VIS 3/4V5 T00610056





000
SAUS46 KMFR 231727
MTRSXT
SPECI KSXT 231726Z AUTO 00000KT 1SM BR VV002 06/06 A3016 RMK AO2 VIS
1/4V5 T00560056





000
SAUS46 KMFR 231657
MTRSXT
METAR KSXT 231656Z AUTO 00000KT 1/4SM FG VV002 06/06 A3016 RMK AO2
RAB11E25 SLP213 P0000 T00560056





000
SAUS46 KMFR 231657
MTRSXT
METAR KSXT 231656Z AUTO 00000KT 1/4SM FG VV002 06/06 A3016 RMK AO2
RAB11E25 SLP213 P0000 T00560056





000
SAUS46 KMFR 231628
MTRSXT
SPECI KSXT 231627Z AUTO VRB04KT M1/4SM FG VV002 06/06 A3016 RMK AO2
RAB11E25 P0000 T00560056





000
SAUS46 KMFR 231557
MTRSXT
METAR KSXT 231556Z AUTO VRB03KT M1/4SM FG VV001 06/06 A3015 RMK AO2
SLP211 T00560056





000
SAUS46 KMFR 231524
MTRSXT
SPECI KSXT 231523Z AUTO VRB04KT M1/4SM FG VV001 05/05 A3014 RMK AO2
T00500050





000
SAUS46 KMFR 231524
MTRSXT
SPECI KSXT 231523Z AUTO VRB04KT M1/4SM FG VV001 05/05 A3014 RMK AO2
T00500050





000
SAUS46 KMFR 231457
MTRSXT
METAR KSXT 231456Z AUTO 01004KT M1/4SM FG VV002 05/05 A3013 RMK AO2
SLP200 T00500050 51005





000
SAUS46 KMFR 231452
MTRSXT
SPECI KSXT 231451Z AUTO 36004KT M1/4SM FG VV002 05/04 A3013 RMK AO2





000
SAUS46 KMFR 231452
MTRSXT
SPECI KSXT 231451Z AUTO 36004KT M1/4SM FG VV002 05/04 A3013 RMK AO2





000
SAUS46 KMFR 231357
MTRSXT
METAR KSXT 231356Z AUTO VRB04KT M1/4SM FG VV001 04/04 A3013 RMK AO2
SLP196 T00440044





000
SAUS46 KMFR 231257
MTRSXT
METAR KSXT 231256Z AUTO 00000KT 1/4SM FG VV001 04/04 A3011 RMK AO2
SLP189 T00440044





000
SAUS46 KMFR 231257
MTRSXT
METAR KSXT 231256Z AUTO 00000KT 1/4SM FG VV001 04/04 A3011 RMK AO2
SLP189 T00440044





000
SAUS46 KMFR 231157
MTRSXT
METAR KSXT 231156Z AUTO 35004KT 1/4SM FG VV001 04/04 A3011 RMK AO2
SLP185 T00440044 10056 20044 50003





000
SAUS46 KMFR 231157
MTRSXT
METAR KSXT 231156Z AUTO 35004KT 1/4SM FG VV001 04/04 A3011 RMK AO2
SLP185 T00440044 10056 20044 50003





000
SAUS46 KMFR 231140
MTRSXT
SPECI KSXT 231138Z AUTO VRB05KT M1/4SM FG VV001 04/04 A3011 RMK AO2
T00440044





000
SAUS46 KMFR 231140
MTRSXT
SPECI KSXT 231138Z AUTO VRB05KT M1/4SM FG VV001 04/04 A3011 RMK AO2
T00440044





000
SAUS46 KMFR 231057
MTRSXT
METAR KSXT 231056Z AUTO 36006KT 1/4SM FG VV002 04/04 A3011 RMK AO2
SLP186 T00440044





000
SAUS46 KMFR 231057
MTRSXT
METAR KSXT 231056Z AUTO 36006KT 1/4SM FG VV002 04/04 A3011 RMK AO2
SLP186 T00440044





000
SAUS46 KMFR 231010
MTRSXT
SPECI KSXT 231009Z AUTO 36006G14KT 1/4SM FG VV002 04/04 A3011 RMK
AO2 T00440044





000
SAUS46 KMFR 230957
MTRSXT
METAR KSXT 230956Z AUTO 01006KT 1/4SM FG VV001 04/04 A3011 RMK AO2
SLP185 T00440044





000
SAUS46 KMFR 230857
MTRSXT
METAR KSXT 230856Z AUTO 34007KT M1/4SM FG VV001 05/04 A3010 RMK AO2
SLP186 T00500044 53001





000
SAUS46 KMFR 230800
MTRMHS
METAR KMHS 230756Z AUTO 00000KT 10SM CLR 09/06 A3006 RMK AO2 SLP180
T00940061 401940094





000
SAUS46 KMFR 230757
MTRSXT
METAR KSXT 230756Z AUTO 34007KT M1/4SM FG VV001 05/05 A3010 RMK AO2
SLP187 T00500050 401330050





000
SAUS46 KMFR 230657
MTRSXT
METAR KSXT 230656Z AUTO 35007KT 1/4SM FG VV001 06/05 A3009 RMK AO2
SLP187 T00560050





000
SAUS46 KMFR 230614
MTRSXT
SPECI KSXT 230613Z AUTO 36008KT 1/4SM FG VV001 06/06 A3010 RMK AO2
T00560056





000
SAUS46 KMFR 230614
MTRSXT
SPECI KSXT 230613Z AUTO 36008KT 1/4SM FG VV001 06/06 A3010 RMK AO2
T00560056





000
SAUS46 KMFR 230605
MTRSXT
SPECI KSXT 230604Z AUTO 36008KT 1/2SM FG VV002 06/06 A3010 RMK AO2
T00560056





000
SAUS46 KMFR 230605
MTRSXT
SPECI KSXT 230604Z AUTO 36008KT 1/2SM FG VV002 06/06 A3010 RMK AO2
T00560056





000
SAUS46 KMFR 230557
MTRSXT
METAR KSXT 230556Z AUTO 36009KT 1 1/4SM BR OVC002 06/06 A3010 RMK
AO2 SLP188 T00560056 10133 20056 53010





000
SAUS46 KMFR 230557
MTRSXT
METAR KSXT 230556Z AUTO 36009KT 1 1/4SM BR OVC002 06/06 A3010 RMK
AO2 SLP188 T00560056 10133 20056 53010





000
SAUS46 KMFR 230548
MTRSXT
SPECI KSXT 230547Z AUTO 36010KT 1 1/4SM BR BKN002 06/06 A3010 RMK
AO2 VIS 3/4V2 1/2 T00560056





000
SAUS46 KMFR 230529
MTRSXT
SPECI KSXT 230528Z AUTO 36008KT 1/2SM FG VV002 06/06 A3009 RMK AO2
T00610056





000
SAUS46 KMFR 230519
MTRSXT
SPECI KSXT 230518Z AUTO 36009KT 1SM BR VV003 06/06 A3009 RMK AO2
T00610056





000
SAUS46 KMFR 230519
MTRSXT
SPECI KSXT 230518Z AUTO 36009KT 1SM BR VV003 06/06 A3009 RMK AO2
T00610056





000
SAUS46 KMFR 230509
MTRSXT
SPECI KSXT 230508Z AUTO 36007KT 3/4SM BR OVC005 06/06 A3008 RMK AO2
T00610061





000
SAUS46 KMFR 230505
MTRSXT
SPECI KSXT 230503Z AUTO 36006KT 1 3/4SM BR OVC005 06/06 A3008 RMK
AO2 T00610061





000
SAUS46 KMFR 230505
MTRSXT
SPECI KSXT 230503Z AUTO 36006KT 1 3/4SM BR OVC005 06/06 A3008 RMK
AO2 T00610061





000
SAUS46 KMFR 230457
MTRSXT
METAR KSXT 230456Z AUTO 35007KT 2 1/2SM BR OVC004 06/06 A3008 RMK
AO2 VIS 1 1/2V5 SLP182 T00610056





000
SAUS46 KMFR 230457
MTRSXT
METAR KSXT 230456Z AUTO 35007KT 2 1/2SM BR OVC004 06/06 A3008 RMK
AO2 VIS 1 1/2V5 SLP182 T00610056





000
SAUS46 KMFR 230444
MTRSXT
SPECI KSXT 230443Z AUTO VRB06KT 2 1/2SM BR BKN004 06/06 A3008 RMK
AO2 T00610056





000
SAUS46 KMFR 230436
MTRSXT
SPECI KSXT 230434Z AUTO 36006KT 5SM BR SCT002 BKN006 06/06 A3007 RMK
AO2 T00610056





000
SAUS46 KMFR 230436
MTRSXT
SPECI KSXT 230434Z AUTO 36006KT 5SM BR SCT002 BKN006 06/06 A3007 RMK
AO2 T00610056





000
SAUS46 KMFR 230424
MTRSXT
SPECI KSXT 230423Z AUTO 34006KT 7SM SCT006 06/06 A3007 RMK AO2
T00610061





000
SAUS46 KMFR 230424
MTRSXT
SPECI KSXT 230423Z AUTO 34006KT 7SM SCT006 06/06 A3007 RMK AO2
T00610061





000
SAUS46 KMFR 230357
MTRSXT
METAR KSXT 230356Z AUTO VRB05KT 10SM BKN008 07/06 A3007 RMK AO2
SLP176 T00670061





000
SAUS46 KMFR 230340
MTRSXT
SPECI KSXT 230339Z AUTO VRB03KT 10SM BKN009 07/07 A3007 RMK AO2
T00720067





000
SAUS46 KMFR 230305
MTRSXT
SPECI KSXT 230303Z AUTO VRB03KT 10SM SCT009 08/07 A3006 RMK AO2
T00830072





000
SAUS46 KMFR 230305
MTRSXT
SPECI KSXT 230303Z AUTO VRB03KT 10SM SCT009 08/07 A3006 RMK AO2
T00830072





000
SAUS46 KMFR 230300
MTRMHS
METAR KMHS 230256Z AUTO VRB04KT 10SM CLR 13/09 A3000 RMK AO2 SLP163
60000 T01330089 51004





000
SAUS46 KMFR 230300
MTRMHS
METAR KMHS 230256Z AUTO VRB04KT 10SM CLR 13/09 A3000 RMK AO2 SLP163
60000 T01330089 51004





000
SAUS46 KMFR 230257
MTRSXT
METAR KSXT 230256Z AUTO 34007KT 10SM BKN010 09/07 A3006 RMK AO2
SLP169 T00890072 53004





000
SAUS46 KMFR 230257
MTRSXT
METAR KSXT 230256Z AUTO 34007KT 10SM BKN010 09/07 A3006 RMK AO2
SLP169 T00890072 53004





000
SAUS46 KMFR 230226
MTRSXT
SPECI KSXT 230225Z AUTO VRB03KT 10SM BKN012 10/08 A3006 RMK AO2
T01000078





000
SAUS46 KMFR 230226
MTRSXT
SPECI KSXT 230225Z AUTO VRB03KT 10SM BKN012 10/08 A3006 RMK AO2
T01000078





000
SAUS46 KMFR 230157
MTRSXT
METAR KSXT 230156Z AUTO 10SM FEW013 11/08 A3006 RMK AO2 SLP162
T01110083





000
SAUS46 KMFR 230057
MTRSXT
METAR KSXT 230056Z AUTO 00000KT 10SM FEW018 12/08 A3005 RMK AO2
SLP158 T01220083





000
SAUS46 KMFR 230057
MTRSXT
METAR KSXT 230056Z AUTO 00000KT 10SM FEW018 12/08 A3005 RMK AO2
SLP158 T01220083





000
SAUS46 KMFR 222357
MTRSXT
METAR KSXT 222356Z AUTO VRB04KT 10SM CLR 13/09 A3005 RMK AO2 SLP156
60000 T01330094 10133 20078 54000





000
SAUS46 KMFR 222357
MTRSXT
METAR KSXT 222356Z AUTO VRB04KT 10SM CLR 13/09 A3005 RMK AO2 SLP156
60000 T01330094 10133 20078 54000





000
SAUS46 KMFR 222257
MTRSXT
METAR KSXT 222256Z AUTO VRB05KT 10SM CLR 13/09 A3005 RMK AO2 SLP158
T01280094





000
SAUS46 KMFR 222253
MTRMHS
SPECI KMHS 222249Z AUTO VRB06KT 6SM -RA BR SCT050 BKN070 OVC080
13/11 A2998 RMK AO2 RAB15 P0008 T01330111





000
SAUS46 KMFR 222253
MTRMHS
SPECI KMHS 222249Z AUTO VRB06KT 6SM -RA BR SCT050 BKN070 OVC080
13/11 A2998 RMK AO2 RAB15 P0008 T01330111





000
SAUS46 KMFR 222157
MTRSXT
METAR KSXT 222156Z AUTO 00000KT 10SM SCT012 BKN120 13/11 A3005 RMK
AO2 SLP158 T01280106





000
SAUS46 KMFR 222140
MTRSXT
SPECI KSXT 222139Z AUTO VRB04KT 10SM BKN010 BKN015 OVC120 12/10
A3005 RMK AO2 T01170100





000
SAUS46 KMFR 222106
MTRSXT
SPECI KSXT 222105Z AUTO 00000KT 10SM OVC006 11/10 A3005 RMK AO2
T01060100





000
SAUS46 KMFR 222058
MTRSXT
METAR KSXT 222056Z AUTO 00000KT 10SM OVC004 11/10 A3005 RMK AO2
RAB01E14 SLP162 P0000 60000 T01060100 51004





000
SAUS46 KMFR 222036
MTRSXT
SPECI KSXT 222035Z AUTO 5SM BR OVC002 10/10 A3005 RMK AO2 RAB01E14
P0000 T01000100





000
SAUS46 KMFR 222029
MTRSXT
SPECI KSXT 222027Z AUTO VRB03KT 2SM BR OVC002 11/10 A3005 RMK AO2
RAB01E14 P0000 T01060100





000
SAUS46 KMFR 222026
MTRSXT
SPECI KSXT 222024Z AUTO VRB03KT 1SM BR VV002 11/10 A3005 RMK AO2
RAB01E14 P0000 T01060100





000
SAUS46 KMFR 221957
MTRSXT
METAR KSXT 221956Z AUTO VRB04KT 1/4SM FG VV002 09/09 A3005 RMK AO2
SLP162 T00940094





000
SAUS46 KMFR 221957
MTRSXT
METAR KSXT 221956Z AUTO VRB04KT 1/4SM FG VV002 09/09 A3005 RMK AO2
SLP162 T00940094





000
SAUS46 KMFR 221857
MTRSXT
METAR KSXT 221856Z AUTO 33003KT M1/4SM FG VV001 08/08 A3004 RMK AO2
SLP162 T00830078





000
SAUS46 KMFR 221857
MTRSXT
METAR KSXT 221856Z AUTO 33003KT M1/4SM FG VV001 08/08 A3004 RMK AO2
SLP162 T00830078





000
SAUS46 KMFR 221757
MTRSXT
METAR KSXT 221756Z AUTO 33004KT M1/4SM FG VV001 08/08 A3003 RMK AO2
RAB1659E12 SLP162 P0000 60000 T00830083 10083 20078 51008





000
SAUS46 KMFR 221757
MTRSXT
METAR KSXT 221756Z AUTO 33004KT M1/4SM FG VV001 08/08 A3003 RMK AO2
RAB1659E12 SLP162 P0000 60000 T00830083 10083 20078 51008





000
SAUS46 KMFR 221657
MTRSXT
METAR KSXT 221656Z AUTO VRB03KT M1/4SM FG VV001 08/08 A3003 RMK AO2
SLP159 T00780078





000
SAUS46 KMFR 221657
MTRSXT
METAR KSXT 221656Z AUTO VRB03KT M1/4SM FG VV001 08/08 A3003 RMK AO2
SLP159 T00780078





000
SAUS46 KMFR 221639
MTRMHS
SPECI KMHS 221635Z AUTO 00000KT 10SM SCT008 SCT014 OVC023 13/10
A2999 RMK AO2 T01330100





000
SAUS46 KMFR 221557
MTRSXT
METAR KSXT 221556Z AUTO 34003KT M1/4SM FG VV001 08/08 A3002 RMK AO2
SLP153 T00830083





000
SAUS46 KMFR 221457
MTRSXT
METAR KSXT 221456Z AUTO 00000KT M1/4SM FG VV001 08/08 A3001 RMK AO2
SLP149 60000 T00830083 53008





000
SAUS46 KMFR 221426
MTRSXT
SPECI KSXT 221424Z AUTO 00000KT M1/4SM FG VV001 08/08 A3000 RMK AO2
T00830083





000
SAUS46 KMFR 221357
MTRSXT
METAR KSXT 221356Z AUTO 00000KT M1/4SM FG VV002 08/08 A2999 RMK AO2
SLP144 T00830083





000
SAUS46 KMFR 221324
MTRSXT
SPECI KSXT 221323Z AUTO 33003KT 1/4SM FG VV002 08/08 A2999 RMK AO2
T00830083





000
SAUS46 KMFR 221257
MTRSXT
METAR KSXT 221256Z AUTO 00000KT 1/4SM FG VV001 08/08 A2999 RMK AO2
RAE13 SLP141 P0000 T00830083





000
SAUS46 KMFR 221212
MTRMHS
SPECI KMHS 221208Z AUTO 00000KT 10SM BKN008 OVC022 10/08 A2997 RMK
AO2 T01000083





000
SAUS46 KMFR 221212
MTRMHS
SPECI KMHS 221208Z AUTO 00000KT 10SM BKN008 OVC022 10/08 A2997 RMK
AO2 T01000083





000
SAUS46 KMFR 221158
MTRSXT
METAR KSXT 221156Z AUTO 34004KT M1/4SM -RA FG VV001 08/08 A2998 RMK
AO2 RAB48 SLP140 P0000 60000 70072 T00830078 10089 20083 55000





000
SAUS46 KMFR 221158
MTRSXT
METAR KSXT 221156Z AUTO 34004KT M1/4SM -RA FG VV001 08/08 A2998 RMK
AO2 RAB48 SLP140 P0000 60000 70072 T00830078 10089 20083 55000





000
SAUS46 KMFR 221139
MTRSXT
SPECI KSXT 221138Z AUTO 33004KT 1/4SM FG VV001 08/08 A2998 RMK AO2
T00830083





000
SAUS46 KMFR 221139
MTRSXT
SPECI KSXT 221138Z AUTO 33004KT 1/4SM FG VV001 08/08 A2998 RMK AO2
T00830083





000
SAUS46 KMFR 221131
MTRMHS
SPECI KMHS 221127Z AUTO 00000KT 10SM SCT003 BKN024 OVC070 10/09
A2997 RMK AO2 T01000089





000
SAUS46 KMFR 221131
MTRSXT
SPECI KSXT 221130Z AUTO 32003KT 1/4SM FG VV002 08/08 A2998 RMK AO2
T00830083





000
SAUS46 KMFR 221131
MTRSXT
SPECI KSXT 221130Z AUTO 32003KT 1/4SM FG VV002 08/08 A2998 RMK AO2
T00830083





000
SAUS46 KMFR 221131
MTRMHS
SPECI KMHS 221127Z AUTO 00000KT 10SM SCT003 BKN024 OVC070 10/09
A2997 RMK AO2 T01000089





000
SAUS46 KMFR 221057
MTRSXT
METAR KSXT 221056Z AUTO 34004KT M1/4SM FG VV001 08/08 A2998 RMK AO2
SLP139 T00830083





000
SAUS46 KMFR 220957
MTRSXT
METAR KSXT 220956Z AUTO 33004KT M1/4SM FG VV001 08/08 A2998 RMK AO2
SLP132 T00830083





000
SAUS46 KMFR 220957
MTRSXT
METAR KSXT 220956Z AUTO 33004KT M1/4SM FG VV001 08/08 A2998 RMK AO2
SLP132 T00830083





000
SAUS46 KMFR 220857
MTRSXT
METAR KSXT 220856Z AUTO 00000KT M1/4SM FG VV001 08/08 A2998 RMK AO2
SLP132 60000 T00830083 53002





000
SAUS46 KMFR 220826
MTRSXT
SPECI KSXT 220825Z AUTO 00000KT M1/4SM FG VV002 09/09 A2998 RMK AO2
T00890089





000
SAUS46 KMFR 220757
MTRSXT
METAR KSXT 220756Z AUTO 00000KT M1/4SM FG VV001 09/09 A2997 RMK AO2
RAE02B22E33 SLP132 P0000 T00890089 401560083





000
SAUS46 KMFR 220658
MTRSXT
METAR KSXT 220656Z AUTO 33004KT M1/4SM -RA FG VV001 09/09 A2997 RMK
AO2 RAB55 SLP134 P0000 T00890089





000
SAUS46 KMFR 220658
MTRSXT
METAR KSXT 220656Z AUTO 33004KT M1/4SM -RA FG VV001 09/09 A2997 RMK
AO2 RAB55 SLP134 P0000 T00890089





000
SAUS46 KMFR 220612
MTRSXT
SPECI KSXT 220611Z AUTO 35003KT M1/4SM FG VV001 09/09 A2997 RMK AO2
T00890089





000
SAUS46 KMFR 220605
MTRSXT
SPECI KSXT 220604Z AUTO 34003KT 1/2SM FG VV001 09/08 A2997 RMK AO2
T00890083





000
SAUS46 KMFR 220605
MTRSXT
SPECI KSXT 220604Z AUTO 34003KT 1/2SM FG VV001 09/08 A2997 RMK AO2
T00890083





000
SAUS46 KMFR 220558
MTRSXT
METAR KSXT 220556Z AUTO 00000KT 10SM FEW001 08/08 A2997 RMK AO2
SLP136 60007 T00830083 10106 20083 51007





000
SAUS46 KMFR 220553
MTRSXT
SPECI KSXT 220552Z AUTO 32003KT 8SM SCT001 08/08 A2997 RMK AO2





000
SAUS46 KMFR 220545
MTRSXT
SPECI KSXT 220544Z AUTO 34003KT 3SM BR BKN001 08/08 A2997 RMK AO2
T00830083





000
SAUS46 KMFR 220545
MTRSXT
SPECI KSXT 220544Z AUTO 34003KT 3SM BR BKN001 08/08 A2997 RMK AO2
T00830083





000
SAUS46 KMFR 220543
MTRSXT
SPECI KSXT 220542Z AUTO 34003KT 1SM BR VV001 09/08 A2997 RMK AO2
T00890083





000
SAUS46 KMFR 220543
MTRSXT
SPECI KSXT 220542Z AUTO 34003KT 1SM BR VV001 09/08 A2997 RMK AO2
T00890083





000
SAUS46 KMFR 220524
MTRSXT
SPECI KSXT 220523Z AUTO 35005KT M1/4SM FG VV001 09/09 A2997 RMK AO2
T00890089





000
SAUS46 KMFR 220524
MTRSXT
SPECI KSXT 220523Z AUTO 35005KT M1/4SM FG VV001 09/09 A2997 RMK AO2
T00890089





000
SAUS46 KMFR 220457
MTRSXT
METAR KSXT 220456Z AUTO 34006KT 1/4SM FG VV002 09/09 A2997 RMK AO2
SLP134 T00890089





000
SAUS46 KMFR 220457
MTRSXT
METAR KSXT 220456Z AUTO 34006KT 1/4SM FG VV002 09/09 A2997 RMK AO2
SLP134 T00890089





000
SAUS46 KMFR 220357
MTRSXT
METAR KSXT 220356Z AUTO 34007KT 1/4SM FG BKN002 OVC070 09/09 A2995
RMK AO2 SLP125 T00890089





000
SAUS46 KMFR 220327
MTRSXT
SPECI KSXT 220326Z AUTO 34008KT M1/4SM FG VV002 09/09 A2995 RMK AO2
T00940094





000
SAUS46 KMFR 220327
MTRSXT
SPECI KSXT 220326Z AUTO 34008KT M1/4SM FG VV002 09/09 A2995 RMK AO2
T00940094





000
SAUS46 KMFR 220257
MTRSXT
METAR KSXT 220256Z AUTO 34006KT M1/4SM FG VV001 09/09 A2994 RMK AO2
RAE00B29E43 SLP122 P0000 60007 T00940094 53004





000
SAUS46 KMFR 220157
MTRSXT
METAR KSXT 220156Z AUTO 00000KT M1/4SM -RA FG VV001 11/11 A2993 RMK
AO2 SLP119 P0001 T01060106





000
SAUS46 KMFR 220117
MTRSXT
SPECI KSXT 220116Z AUTO VRB03KT M1/4SM -RA FG VV001 11/11 A2993 RMK
AO2 P0000 T01060106





000
SAUS46 KMFR 220107
MTRSXT
SPECI KSXT 220106Z AUTO VRB04KT M1/4SM -RA FG VV002 11/11 A2993 RMK
AO2 P0000 T01060106





000
SAUS46 KMFR 220057
MTRSXT
METAR KSXT 220056Z AUTO 34005KT M1/4SM -RA FG BKN005 OVC070 10/10
A2993 RMK AO2 SLP118 P0006 T01000100





000
SAUS46 KMFR 220045
MTRSXT
SPECI KSXT 220044Z AUTO 35004KT M1/4SM -RA FG BKN014 OVC070 10/10
A2993 RMK AO2 P0005 T01000100





000
SAUS46 KMFR 220045
MTRSXT
SPECI KSXT 220044Z AUTO 35004KT M1/4SM -RA FG BKN014 OVC070 10/10
A2993 RMK AO2 P0005 T01000100





000
SAUS46 KMFR 220041
MTRSXT
SPECI KSXT 220039Z AUTO VRB05KT M1/4SM -RA FG SCT016 BKN037 OVC070
10/10 A2993 RMK AO2 P0005 T01000100





000
SAUS46 KMFR 220041
MTRSXT
SPECI KSXT 220039Z AUTO VRB05KT M1/4SM -RA FG SCT016 BKN037 OVC070
10/10 A2993 RMK AO2 P0005 T01000100





000
SAUS46 KMFR 220029
MTRSXT
SPECI KSXT 220028Z AUTO VRB06KT M1/4SM -RA FG BKN016 OVC060 10/10
A2993 RMK AO2 P0004 T01000100





000
SAUS46 KMFR 220029
MTRSXT
SPECI KSXT 220028Z AUTO VRB06KT M1/4SM -RA FG BKN016 OVC060 10/10
A2993 RMK AO2 P0004 T01000100





000
SAUS46 KMFR 212357
MTRSXT
METAR KSXT 212356Z AUTO 34005KT M1/4SM RA FG BKN055 OVC075 09/09
A2993 RMK AO2 SLP120 P0014 60065 T00940094 10156 20094 55001





000
SAUS46 KMFR 212357
MTRSXT
METAR KSXT 212356Z AUTO 34005KT M1/4SM RA FG BKN055 OVC075 09/09
A2993 RMK AO2 SLP120 P0014 60065 T00940094 10156 20094 55001





000
SAUS46 KMFR 212314
MTRSXT
SPECI KSXT 212313Z AUTO 34005KT M1/4SM +RA FG OVC036 10/09 A2993 RMK
AO2 P0007 T01000094





000
SAUS46 KMFR 212306
MTRSXT
SPECI KSXT 212305Z AUTO 34005KT 1/4SM RA FG BKN027 BKN036 OVC050
09/09 A2992 RMK AO2 P0003 T00940094





000
SAUS46 KMFR 212257
MTRSXT
METAR KSXT 212256Z AUTO 33005KT 1/4SM +RA FG BKN014 OVC036 09/09
A2992 RMK AO2 RAB21 SLP117 P0051 T00940094





000
SAUS46 KMFR 212245
MTRSXT
SPECI KSXT 212244Z AUTO 33008KT M1/4SM +RA FG FEW002 BKN010 OVC014
10/10 A2992 RMK AO2 RAB21 P0031 T01000100





000
SAUS46 KMFR 212233
MTRSXT
SPECI KSXT 212232Z AUTO 00000KT 1/4SM RA FG BKN002 BKN009 OVC015
11/11 A2993 RMK AO2 RAB21 P0001 T01110111





000
SAUS46 KMFR 212233
MTRSXT
SPECI KSXT 212232Z AUTO 00000KT 1/4SM RA FG BKN002 BKN009 OVC015
11/11 A2993 RMK AO2 RAB21 P0001 T01110111





000
SAUS46 KMFR 212231
MTRSXT
SPECI KSXT 212230Z AUTO 00000KT 1SM RA BR BKN002 BKN009 OVC013 12/11
A2992 RMK AO2 RAB21 P0001 T01170111





000
SAUS46 KMFR 212231
MTRSXT
SPECI KSXT 212230Z AUTO 00000KT 1SM RA BR BKN002 BKN009 OVC013 12/11
A2992 RMK AO2 RAB21 P0001 T01170111





000
SAUS46 KMFR 212208
MTRSXT
SPECI KSXT 212207Z AUTO 00000KT 10SM FEW009 BKN012 OVC048 13/11
A2993 RMK AO2 T01280106





000
SAUS46 KMFR 212208
MTRSXT
SPECI KSXT 212207Z AUTO 00000KT 10SM FEW009 BKN012 OVC048 13/11
A2993 RMK AO2 T01280106





000
SAUS46 KMFR 212158
MTRSXT
METAR KSXT 212156Z AUTO 00000KT 10SM SCT011 BKN048 OVC070 13/11
A2993 RMK AO2 RAB46E52 SLP111 P0000 T01330111





000
SAUS46 KMFR 212158
MTRSXT
METAR KSXT 212156Z AUTO 00000KT 10SM SCT011 BKN048 OVC070 13/11
A2993 RMK AO2 RAB46E52 SLP111 P0000 T01330111





000
SAUS46 KMFR 212145
MTRSXT
SPECI KSXT 212143Z AUTO 00000KT 10SM SCT009 BKN047 OVC075 16/12
A2993 RMK AO2 T01560122





    US Dept of Commerce
    National Oceanic and Atmospheric Administration
    National Weather Service
    1325 East West Highway
    Silver Spring, MD 20910
    Page Author: NWS Internet Services Team
Disclaimer
Information Quality
Credits
Glossary
Privacy Policy
Freedom of Information Act (FOIA)
About Us
Career Opportunities